createdAt,value
2022-12-06T00:01:42.139Z,3.50
2022-12-06T00:04:12.972Z,3.53
2022-12-06T00:06:43.137Z,4.00
2022-12-06T00:09:19.300Z,3.78
2022-12-06T00:11:47.644Z,3.42
2022-12-06T00:14:16.658Z,3.38
2022-12-06T00:16:44.882Z,3.30
2022-12-06T00:19:14.851Z,3.47
2022-12-06T00:21:43.836Z,4.13
2022-12-06T00:24:15.859Z,3.65
2022-12-06T00:26:46.419Z,3.10
2022-12-06T00:29:16.466Z,3.55
2022-12-06T00:31:44.792Z,3.85
2022-12-06T00:34:14.531Z,3.75
2022-12-06T00:36:43.830Z,3.97
2022-12-06T00:39:15.401Z,4.05
2022-12-06T00:41:44.099Z,4.45
2022-12-06T00:44:13.072Z,4.60
2022-12-06T00:46:41.455Z,4.82
2022-12-06T00:49:10.447Z,4.43
2022-12-06T00:51:40.556Z,4.43
2022-12-06T00:54:09.524Z,4.90
2022-12-06T00:56:39.169Z,4.50
2022-12-06T00:59:07.650Z,4.82
2022-12-06T01:01:37.538Z,4.95
2022-12-06T01:04:07.542Z,5.47
2022-12-06T01:06:38.097Z,5.43
2022-12-06T01:09:09.281Z,5.60
2022-12-06T01:11:39.239Z,5.93
2022-12-06T01:14:07.635Z,5.20
2022-12-06T01:16:36.067Z,6.00
2022-12-06T01:19:06.749Z,4.90
2022-12-06T01:21:36.870Z,5.57
2022-12-06T01:24:05.272Z,5.20
2022-12-06T01:26:35.432Z,5.68
2022-12-06T01:29:05.731Z,5.55
2022-12-06T01:31:38.768Z,5.95
2022-12-06T01:34:08.920Z,5.90
2022-12-06T01:36:38.981Z,6.43
2022-12-06T01:39:10.556Z,5.88
2022-12-06T01:41:39.936Z,5.90
2022-12-06T01:44:42.412Z,6.20
2022-12-06T01:47:17.942Z,6.47
2022-12-06T01:49:51.239Z,5.40
2022-12-06T01:52:26.712Z,5.45
2022-12-06T01:57:25.421Z,5.28
2022-12-06T01:59:53.844Z,5.30
2022-12-06T02:02:24.593Z,5.50
2022-12-06T02:04:53.255Z,4.80
2022-12-06T02:07:24.231Z,5.43
2022-12-06T02:09:53.768Z,5.00
2022-12-06T02:12:22.047Z,5.28
2022-12-06T02:14:54.103Z,4.93
2022-12-06T02:17:43.724Z,5.13
2022-12-06T02:20:25.827Z,5.22
2022-12-06T02:23:19.468Z,5.65
2022-12-06T02:28:46.500Z,6.90
2022-12-06T02:31:20.565Z,7.28
2022-12-06T02:33:54.551Z,6.47
2022-12-06T02:36:30.075Z,6.78
2022-12-06T02:39:04.151Z,6.57
2022-12-06T02:41:37.075Z,6.72
2022-12-06T02:44:11.698Z,7.68
2022-12-06T02:46:44.843Z,8.30
2022-12-06T02:51:43.910Z,7.15
2022-12-06T02:54:13.619Z,7.25
2022-12-06T02:56:41.590Z,7.63
2022-12-06T02:59:10.898Z,6.82
2022-12-06T03:01:44.585Z,6.70
2022-12-06T03:04:31.639Z,6.88
2022-12-06T03:07:15.976Z,6.63
2022-12-06T03:09:54.165Z,6.32
2022-12-06T03:12:31.446Z,6.97
2022-12-06T03:15:06.977Z,7.10
2022-12-06T03:17:43.530Z,6.90
2022-12-06T03:20:19.141Z,7.03
2022-12-06T03:22:53.890Z,7.05
2022-12-06T03:25:25.310Z,6.82
2022-12-06T03:27:55.511Z,6.55
2022-12-06T03:30:24.700Z,6.60
2022-12-06T03:32:54.381Z,6.18
2022-12-06T03:35:28.096Z,6.32
2022-12-06T03:37:59.952Z,6.20
2022-12-06T03:40:31.324Z,6.75
2022-12-06T03:43:00.734Z,6.55
2022-12-06T03:45:35.427Z,6.75
2022-12-06T03:48:12.238Z,6.70
2022-12-06T03:50:45.108Z,6.35
2022-12-06T03:53:13.624Z,6.63
2022-12-06T03:55:44.949Z,6.68
2022-12-06T03:58:14.873Z,6.13
2022-12-06T04:00:47.705Z,6.55
2022-12-06T04:03:18.968Z,6.20
2022-12-06T04:05:49.026Z,6.55
2022-12-06T04:08:17.175Z,6.93
2022-12-06T04:10:45.152Z,6.68
2022-12-06T04:13:19.353Z,6.75
2022-12-06T04:15:48.507Z,6.75
2022-12-06T04:18:18.696Z,6.70
2022-12-06T04:21:06.966Z,7.03
2022-12-06T04:23:37.518Z,6.75
2022-12-06T04:26:10.519Z,6.90
2022-12-06T04:28:56.201Z,7.30
2022-12-06T04:31:42.205Z,7.68
2022-12-06T04:34:29.228Z,7.72
2022-12-06T04:37:15.369Z,8.07
2022-12-06T04:39:48.388Z,8.63
2022-12-06T04:42:35.508Z,9.57
2022-12-06T04:45:03.980Z,10.88
2022-12-06T04:47:35.559Z,9.25
2022-12-06T04:50:09.544Z,9.13
2022-12-06T04:52:37.539Z,10.35
2022-12-06T04:55:06.914Z,9.88
2022-12-06T04:57:35.811Z,9.38
2022-12-06T05:00:07.061Z,9.25
2022-12-06T05:02:35.420Z,7.90
2022-12-06T05:05:04.121Z,7.78
2022-12-06T05:07:33.856Z,8.35
2022-12-06T05:10:03.561Z,8.80
2022-12-06T05:12:32.547Z,9.23
2022-12-06T05:15:00.696Z,10.20
2022-12-06T05:17:32.073Z,10.05
2022-12-06T05:20:00.777Z,10.05
2022-12-06T05:22:34.955Z,10.25
2022-12-06T05:25:03.015Z,8.30
2022-12-06T05:27:35.772Z,8.88
2022-12-06T05:32:33.059Z,7.97
2022-12-06T05:35:04.711Z,8.20
2022-12-06T05:37:35.066Z,8.35
2022-12-06T05:40:08.068Z,8.30
2022-12-06T05:42:36.134Z,8.82
2022-12-06T05:45:04.456Z,8.90
2022-12-06T05:47:36.752Z,9.32
2022-12-06T05:50:08.705Z,9.88
2022-12-06T05:52:38.304Z,9.68
2022-12-06T05:55:08.924Z,10.38
2022-12-06T05:57:37.967Z,10.95
2022-12-06T06:00:12.034Z,11.65
2022-12-06T06:02:44.227Z,11.70
2022-12-06T06:05:13.300Z,12.13
2022-12-06T06:07:43.870Z,12.43
2022-12-06T06:10:15.902Z,13.02
2022-12-06T06:12:46.348Z,12.55
2022-12-06T06:15:18.262Z,13.48
2022-12-06T06:17:47.021Z,13.70
2022-12-06T06:20:15.348Z,12.57
2022-12-06T06:22:43.716Z,13.77
2022-12-06T06:25:14.446Z,13.52
2022-12-06T06:27:43.869Z,13.57
2022-12-06T06:30:14.381Z,14.00
2022-12-06T06:32:44.842Z,15.15
2022-12-06T06:35:13.227Z,15.13
2022-12-06T06:37:42.518Z,14.75
2022-12-06T06:40:11.422Z,15.02
2022-12-06T06:42:40.960Z,14.63
2022-12-06T06:45:09.943Z,15.57
2022-12-06T06:47:38.306Z,14.60
2022-12-06T06:50:09.286Z,15.18
2022-12-06T06:52:38.200Z,15.02
2022-12-06T06:55:09.333Z,15.73
2022-12-06T06:57:41.203Z,14.23
2022-12-06T07:00:12.494Z,15.98
2022-12-06T07:02:40.679Z,14.93
2022-12-06T07:05:09.070Z,14.40
2022-12-06T07:07:37.898Z,15.88
2022-12-06T07:10:08.384Z,15.55
2022-12-06T07:12:36.690Z,15.55
2022-12-06T07:15:05.372Z,15.88
2022-12-06T07:17:37.420Z,15.80
2022-12-06T07:20:08.589Z,15.00
2022-12-06T07:22:41.346Z,14.18
2022-12-06T07:25:10.749Z,14.77
2022-12-06T07:27:40.106Z,14.85
2022-12-06T07:30:13.251Z,14.63
2022-12-06T07:32:50.647Z,14.98
2022-12-06T07:35:19.218Z,14.18
2022-12-06T07:37:47.910Z,15.30
2022-12-06T07:40:19.206Z,14.45
2022-12-06T07:43:08.827Z,14.50
2022-12-06T07:45:38.400Z,14.18
2022-12-06T07:48:11.233Z,15.45
2022-12-06T07:50:40.134Z,15.35
2022-12-06T07:53:09.331Z,14.82
2022-12-06T07:55:38.203Z,13.40
2022-12-06T07:58:06.539Z,14.30
2022-12-06T08:00:35.463Z,14.48
2022-12-06T08:03:03.562Z,13.95
2022-12-06T08:05:33.023Z,14.23
2022-12-06T08:08:01.470Z,15.40
2022-12-06T08:10:29.971Z,13.77
2022-12-06T08:12:58.262Z,14.48
2022-12-06T08:15:26.924Z,14.48
2022-12-06T08:17:58.201Z,13.88
2022-12-06T08:20:26.413Z,14.45
2022-12-06T08:22:55.909Z,13.63
2022-12-06T08:25:26.597Z,12.45
2022-12-06T08:27:54.660Z,13.00
2022-12-06T08:30:26.439Z,12.40
2022-12-06T08:32:57.144Z,12.52
2022-12-06T08:35:25.561Z,11.93
2022-12-06T08:37:55.256Z,12.13
2022-12-06T08:40:23.406Z,11.48
2022-12-06T08:42:51.807Z,10.88
2022-12-06T08:45:20.405Z,10.93
2022-12-06T08:47:50.572Z,10.82
2022-12-06T08:50:22.384Z,10.93
2022-12-06T08:52:50.523Z,9.65
2022-12-06T08:55:20.520Z,9.95
2022-12-06T08:57:49.223Z,9.80
2022-12-06T09:00:20.476Z,9.07
2022-12-06T09:02:48.983Z,9.57
2022-12-06T09:05:17.398Z,9.18
2022-12-06T09:07:45.519Z,8.98
2022-12-06T09:10:14.632Z,8.80
2022-12-06T09:12:48.317Z,8.30
2022-12-06T09:15:16.710Z,9.38
2022-12-06T09:17:44.876Z,8.57
2022-12-06T09:20:18.192Z,9.27
2022-12-06T09:22:48.940Z,8.82
2022-12-06T09:25:17.096Z,8.63
2022-12-06T09:27:46.740Z,8.30
2022-12-06T09:30:16.257Z,8.82
2022-12-06T09:32:44.405Z,8.27
2022-12-06T09:35:16.017Z,7.80
2022-12-06T09:37:45.601Z,7.60
2022-12-06T09:40:21.768Z,8.02
2022-12-06T09:43:08.076Z,7.97
2022-12-06T09:45:57.119Z,7.20
2022-12-06T09:48:50.912Z,8.10
2022-12-06T09:51:31.230Z,7.55
2022-12-06T09:54:16.507Z,6.93
2022-12-06T09:56:49.213Z,6.55
2022-12-06T09:59:29.174Z,8.07
2022-12-06T10:02:13.019Z,7.60
2022-12-06T10:04:56.523Z,7.75
2022-12-06T10:07:32.206Z,7.40
2022-12-06T10:10:14.933Z,7.30
2022-12-06T10:12:59.575Z,6.22
2022-12-06T10:15:39.833Z,7.13
2022-12-06T10:18:24.031Z,5.88
2022-12-06T10:20:55.792Z,6.40
2022-12-06T10:23:45.732Z,6.85
2022-12-06T10:26:17.041Z,5.45
2022-12-06T10:28:49.114Z,6.78
2022-12-06T10:31:25.087Z,6.30
2022-12-06T10:33:57.004Z,6.82
2022-12-06T10:36:43.258Z,6.75
2022-12-06T10:39:19.714Z,6.20
2022-12-06T10:42:00.480Z,6.30
2022-12-06T10:44:36.405Z,7.50
2022-12-06T10:47:12.993Z,6.00
2022-12-06T10:49:50.803Z,6.05
2022-12-06T10:52:25.524Z,6.15
2022-12-06T10:55:03.680Z,6.82
2022-12-06T10:57:37.725Z,7.03
2022-12-06T11:00:16.408Z,7.10
2022-12-06T11:02:53.314Z,5.85
2022-12-06T11:05:27.450Z,6.45
2022-12-06T11:08:02.441Z,5.85
2022-12-06T11:10:35.274Z,6.38
2022-12-06T11:13:16.303Z,5.68
2022-12-06T11:15:53.259Z,5.85
2022-12-06T11:18:23.621Z,4.93
2022-12-06T11:20:59.759Z,4.55
2022-12-06T11:23:36.653Z,4.43
2022-12-06T11:26:15.147Z,4.22
2022-12-06T11:28:46.619Z,3.40
2022-12-06T11:31:21.226Z,3.83
2022-12-06T11:33:51.260Z,3.65
2022-12-06T11:36:24.564Z,3.53
2022-12-06T11:41:25.491Z,4.55
2022-12-06T11:43:55.044Z,3.85
2022-12-06T11:46:24.548Z,3.58
2022-12-06T11:48:54.794Z,3.17
2022-12-06T11:51:25.824Z,4.13
2022-12-06T11:54:00.334Z,3.78
2022-12-06T11:56:30.917Z,3.50
2022-12-06T11:59:09.423Z,3.88
2022-12-06T12:01:44.209Z,3.45
2022-12-06T12:04:36.839Z,3.00
2022-12-06T12:07:12.479Z,3.42
2022-12-06T12:09:52.697Z,4.85
2022-12-06T12:12:23.229Z,3.55
2022-12-06T12:14:58.223Z,3.33
2022-12-06T12:17:30.958Z,3.67
2022-12-06T12:20:05.732Z,3.30
2022-12-06T12:22:41.482Z,3.50
2022-12-06T12:25:26.218Z,3.50
2022-12-06T12:27:57.239Z,2.90
2022-12-06T12:30:35.568Z,3.05
2022-12-06T12:33:20.822Z,3.45
2022-12-06T12:35:53.884Z,3.13
2022-12-06T12:38:26.472Z,3.90
2022-12-06T12:40:58.015Z,4.25
2022-12-06T12:43:30.629Z,4.03
2022-12-06T12:46:18.548Z,2.90
2022-12-06T12:48:48.223Z,3.65
2022-12-06T12:51:37.419Z,3.58
2022-12-06T12:54:22.915Z,3.13
2022-12-06T12:56:51.598Z,3.20
2022-12-06T12:59:27.151Z,3.17
2022-12-06T13:02:09.988Z,3.10
2022-12-06T13:04:45.277Z,3.25
2022-12-06T13:07:23.700Z,3.67
2022-12-06T13:10:00.489Z,3.03
2022-12-06T13:12:34.402Z,3.33
2022-12-06T13:15:12.093Z,3.45
2022-12-06T13:17:44.342Z,3.28
2022-12-06T13:20:23.187Z,3.17
2022-12-06T13:22:56.806Z,3.58
2022-12-06T13:25:25.652Z,3.45
2022-12-06T13:28:02.190Z,3.40
2022-12-06T13:30:36.585Z,3.05
2022-12-06T13:33:08.250Z,3.20
2022-12-06T13:35:51.480Z,3.95
2022-12-06T13:38:31.376Z,3.45
2022-12-06T13:41:01.330Z,3.58
2022-12-06T13:44:01.442Z,3.75
2022-12-06T13:46:33.840Z,4.18
2022-12-06T13:49:05.760Z,3.47
2022-12-06T13:51:51.759Z,4.00
2022-12-06T13:54:32.295Z,4.00
2022-12-06T13:57:03.546Z,4.10
2022-12-06T13:59:39.514Z,4.05
2022-12-06T14:02:53.745Z,4.60
2022-12-06T14:08:12.260Z,4.18
2022-12-06T14:10:43.447Z,4.15
2022-12-06T14:13:18.301Z,4.82
2022-12-06T14:15:49.027Z,5.03
2022-12-06T14:18:21.341Z,4.80
2022-12-06T14:20:52.618Z,4.50
2022-12-06T14:23:27.248Z,5.03
2022-12-06T14:26:18.559Z,4.68
2022-12-06T14:28:48.792Z,4.70
2022-12-06T14:31:25.151Z,5.57
2022-12-06T14:33:54.953Z,5.18
2022-12-06T14:36:27.496Z,6.05
2022-12-06T14:39:00.767Z,5.35
2022-12-06T14:41:57.514Z,5.88
2022-12-06T14:44:30.572Z,6.25
2022-12-06T14:46:59.700Z,5.38
2022-12-06T14:49:46.912Z,4.82
2022-12-06T14:52:21.406Z,4.15
2022-12-06T14:54:50.079Z,4.28
2022-12-06T14:57:28.111Z,4.35
2022-12-06T15:00:20.925Z,4.03
2022-12-06T15:03:23.313Z,3.65
2022-12-06T15:06:09.025Z,4.28
2022-12-06T15:08:39.362Z,4.28
2022-12-06T15:11:57.874Z,4.57
2022-12-06T15:14:29.461Z,4.70
2022-12-06T15:17:00.724Z,5.15
2022-12-06T15:19:30.332Z,5.25
2022-12-06T15:21:58.776Z,4.80
2022-12-06T15:24:28.636Z,5.00
2022-12-06T15:26:56.748Z,5.05
2022-12-06T15:29:25.646Z,6.05
2022-12-06T15:31:56.961Z,6.45
2022-12-06T15:34:28.982Z,6.20
2022-12-06T15:37:22.415Z,5.90
2022-12-06T15:39:46.490Z,5.40
2022-12-06T15:42:18.942Z,5.78
2022-12-06T15:44:49.783Z,3.60
2022-12-06T15:47:22.068Z,5.13
2022-12-06T15:49:51.694Z,4.85
2022-12-06T15:52:25.369Z,4.13
2022-12-06T15:54:53.560Z,3.92
2022-12-06T15:57:21.623Z,3.60
2022-12-06T15:59:49.708Z,4.20
2022-12-06T16:02:20.651Z,4.25
2022-12-06T16:04:51.941Z,4.63
2022-12-06T16:07:24.116Z,4.38
2022-12-06T16:09:53.294Z,4.68
2022-12-06T16:12:23.925Z,4.55
2022-12-06T16:14:54.810Z,4.28
2022-12-06T16:17:35.756Z,5.03
2022-12-06T16:20:21.551Z,4.85
2022-12-06T16:23:09.763Z,3.95
2022-12-06T16:25:38.055Z,4.20
2022-12-06T16:28:07.307Z,4.80
2022-12-06T16:30:36.596Z,4.35
2022-12-06T16:33:09.976Z,4.28
2022-12-06T16:35:38.033Z,4.38
2022-12-06T16:38:07.671Z,3.90
2022-12-06T16:40:35.944Z,3.90
2022-12-06T16:43:11.570Z,4.53
2022-12-06T16:45:42.090Z,4.25
2022-12-06T16:48:16.551Z,4.82
2022-12-06T16:50:45.747Z,4.47
2022-12-06T16:53:16.515Z,5.30
2022-12-06T16:55:45.966Z,6.55
2022-12-06T16:58:20.985Z,7.22
2022-12-06T17:00:51.554Z,8.55
2022-12-06T17:03:21.037Z,6.50
2022-12-06T17:05:49.153Z,6.65
2022-12-06T17:08:22.080Z,5.55
2022-12-06T17:13:40.396Z,5.50
2022-12-06T17:16:10.191Z,5.90
2022-12-06T17:18:45.442Z,6.07
2022-12-06T17:21:17.402Z,5.53
2022-12-06T17:23:46.489Z,5.55
2022-12-06T17:26:14.722Z,5.53
2022-12-06T17:28:43.118Z,5.72
2022-12-06T17:31:11.779Z,5.75
2022-12-06T17:33:46.043Z,6.05
2022-12-06T17:36:16.789Z,6.20
2022-12-06T17:38:46.675Z,6.50
2022-12-06T17:41:33.468Z,5.60
2022-12-06T17:44:01.901Z,5.60
2022-12-06T17:46:30.267Z,6.40
2022-12-06T17:49:02.225Z,6.45
2022-12-06T17:51:31.661Z,6.70
2022-12-06T17:54:02.232Z,6.63
2022-12-06T17:56:38.658Z,6.68
2022-12-06T17:59:08.384Z,5.95
2022-12-06T18:01:58.571Z,7.22
2022-12-06T18:04:27.773Z,7.03
2022-12-06T18:06:57.670Z,6.35
2022-12-06T18:09:26.163Z,6.53
2022-12-06T18:11:55.704Z,6.05
2022-12-06T18:14:25.460Z,6.90
2022-12-06T18:16:55.939Z,6.78
2022-12-06T18:19:24.389Z,6.60
2022-12-06T18:21:54.932Z,7.03
2022-12-06T18:24:25.549Z,6.80
2022-12-06T18:26:58.011Z,6.43
2022-12-06T18:29:32.928Z,6.80
2022-12-06T18:32:02.441Z,6.25
2022-12-06T18:34:33.282Z,6.07
2022-12-06T18:37:02.670Z,6.63
2022-12-06T18:39:30.689Z,5.75
2022-12-06T18:41:59.582Z,6.57
2022-12-06T18:44:29.906Z,6.30
2022-12-06T18:46:57.961Z,6.43
2022-12-06T18:49:31.613Z,7.47
2022-12-06T18:51:59.721Z,7.72
2022-12-06T18:54:30.251Z,6.70
2022-12-06T18:57:00.025Z,6.25
2022-12-06T18:59:30.816Z,6.22
2022-12-06T19:01:59.378Z,6.47
2022-12-06T19:04:27.692Z,6.50
2022-12-06T19:06:59.916Z,6.38
2022-12-06T19:09:31.913Z,6.40
2022-12-06T19:12:00.029Z,6.18
2022-12-06T19:14:30.135Z,6.38
2022-12-06T19:16:59.597Z,5.90
2022-12-06T19:19:28.064Z,5.55
2022-12-06T19:22:00.618Z,6.47
2022-12-06T19:24:30.942Z,6.20
2022-12-06T19:26:59.623Z,5.80
2022-12-06T19:29:31.194Z,7.65
2022-12-06T19:31:59.258Z,6.78
2022-12-06T19:34:30.218Z,5.85
2022-12-06T19:36:58.401Z,7.03
2022-12-06T19:39:29.647Z,7.00
2022-12-06T19:42:16.322Z,6.65
2022-12-06T19:44:44.493Z,6.82
2022-12-06T19:47:13.659Z,6.20
2022-12-06T19:49:45.577Z,6.68
2022-12-06T19:52:13.711Z,6.53
2022-12-06T19:54:43.644Z,7.28
2022-12-06T19:57:12.020Z,6.90
2022-12-06T19:59:40.431Z,6.60
2022-12-06T20:02:13.451Z,6.78
2022-12-06T20:04:46.463Z,6.95
2022-12-06T20:07:15.280Z,6.75
2022-12-06T20:09:47.316Z,6.53
2022-12-06T20:12:20.031Z,7.07
2022-12-06T20:14:49.296Z,7.60
2022-12-06T20:17:20.283Z,7.78
2022-12-06T20:19:49.152Z,7.72
2022-12-06T20:22:19.641Z,7.97
2022-12-06T20:24:49.336Z,7.82
2022-12-06T20:27:39.719Z,8.00
2022-12-06T20:30:09.117Z,8.15
2022-12-06T20:32:38.664Z,8.55
2022-12-06T20:35:06.928Z,8.40
2022-12-06T20:37:35.431Z,7.55
2022-12-06T20:40:08.655Z,7.05
2022-12-06T20:42:38.119Z,7.78
2022-12-06T20:45:08.017Z,7.75
2022-12-06T20:47:36.919Z,9.00
2022-12-06T20:50:05.575Z,8.32
2022-12-06T20:52:35.031Z,7.97
2022-12-06T20:55:03.233Z,9.02
2022-12-06T20:57:32.582Z,9.88
2022-12-06T21:00:07.042Z,8.20
2022-12-06T21:02:35.877Z,9.77
2022-12-06T21:05:04.179Z,10.68
2022-12-06T21:07:32.230Z,11.70
2022-12-06T21:10:00.608Z,12.27
2022-12-06T21:12:29.814Z,11.32
2022-12-06T21:14:59.499Z,13.05
2022-12-06T21:17:27.877Z,12.70
2022-12-06T21:19:56.174Z,12.80
2022-12-06T21:22:24.291Z,13.30
2022-12-06T21:24:57.645Z,12.07
2022-12-06T21:27:26.001Z,14.50
2022-12-06T21:29:55.402Z,12.90
2022-12-06T21:32:26.369Z,12.70
2022-12-06T21:34:54.333Z,12.23
2022-12-06T21:37:22.335Z,12.32
2022-12-06T21:39:50.586Z,11.90
2022-12-06T21:42:21.116Z,11.32
2022-12-06T21:44:50.077Z,10.27
2022-12-06T21:47:18.866Z,10.23
2022-12-06T21:49:48.271Z,12.57
2022-12-06T21:52:16.559Z,11.73
2022-12-06T21:54:44.492Z,10.85
2022-12-06T21:57:12.553Z,10.73
2022-12-06T21:59:40.970Z,13.25
2022-12-06T22:02:13.082Z,13.57
2022-12-06T22:04:41.401Z,16.63
2022-12-06T22:07:10.818Z,17.52
2022-12-06T22:09:40.156Z,19.45
2022-12-06T22:12:08.278Z,18.63
2022-12-06T22:14:36.277Z,15.50
2022-12-06T22:17:04.632Z,18.10
2022-12-06T22:19:32.703Z,28.13
2022-12-06T22:22:00.742Z,23.63
2022-12-06T22:24:30.279Z,17.48
2022-12-06T22:26:58.440Z,17.00
2022-12-06T22:29:26.626Z,20.83
2022-12-06T22:31:54.766Z,19.33
2022-12-06T22:34:24.091Z,19.63
2022-12-06T22:36:52.165Z,15.00
2022-12-06T22:39:20.373Z,16.00
2022-12-06T22:41:50.024Z,14.63
2022-12-06T22:44:19.460Z,14.93
2022-12-06T22:46:48.522Z,12.25
2022-12-06T22:49:18.297Z,14.13
2022-12-06T22:51:46.730Z,12.70
2022-12-06T22:54:15.623Z,14.93
2022-12-06T22:56:48.318Z,14.55
2022-12-06T22:59:18.847Z,16.40
2022-12-06T23:01:46.969Z,13.82
2022-12-06T23:04:15.081Z,17.70
2022-12-06T23:06:44.602Z,17.67
2022-12-06T23:09:15.686Z,13.88
2022-12-06T23:11:45.110Z,12.53
2022-12-06T23:14:13.477Z,13.23
2022-12-06T23:16:43.844Z,14.00
2022-12-06T23:19:12.321Z,13.45
2022-12-06T23:21:42.428Z,13.98
2022-12-06T23:24:12.546Z,14.57
2022-12-06T23:26:42.462Z,13.57
2022-12-06T23:29:10.888Z,13.50
2022-12-06T23:31:41.319Z,13.95
2022-12-06T23:34:19.383Z,14.88
2022-12-06T23:36:47.891Z,13.13
2022-12-06T23:39:16.630Z,14.57
2022-12-06T23:41:44.709Z,14.68
2022-12-06T23:44:14.116Z,14.40
2022-12-06T23:46:44.063Z,13.82
2022-12-06T23:49:17.644Z,14.98
2022-12-06T23:51:46.341Z,15.57
2022-12-06T23:54:15.533Z,13.77
2022-12-06T23:56:45.823Z,15.93
2022-12-06T23:59:15.317Z,19.33
